Time;durP1;ratioP1;P1;durP2;ratioP2;P2;SDS_P1;SDS_P2;PMS_P1;PMS_P2;Temp;Humidity;BMP_temperature;BMP_pressure;BME280_temperature;BME280_humidity;BME280_pressure;Samples;Min_cycle;Max_cycle;Signal;HPM_P1;HPM_P2
2022/07/30 00:01:21;;;;;;;7.00;3.58;;;;;;;22.41;72.84;100057.59;5589837;31;34156;-68
2022/07/30 00:04:24;;;;;;;4.45;3.05;;;;;;;22.42;72.99;100057.34;5590384;31;34973;-69
2022/07/30 00:07:27;;;;;;;7.35;3.50;;;;;;;22.41;72.99;100065.72;5589728;31;34145;-70
2022/07/30 00:10:30;;;;;;;5.37;3.12;;;;;;;22.44;73.24;100063.31;5590539;31;34465;-70
2022/07/30 00:13:33;;;;;;;5.65;3.33;;;;;;;22.39;73.12;100065.97;5589891;31;32839;-70
2022/07/30 00:16:36;;;;;;;4.80;3.22;;;;;;;22.44;73.03;100066.00;5590363;31;34265;-70
2022/07/30 00:19:38;;;;;;;5.60;3.22;;;;;;;22.44;73.16;100067.91;5590273;31;34889;-70
2022/07/30 00:22:45;;;;;;;5.90;2.72;;;;;;;22.43;73.25;100074.37;5589468;31;34188;-70
2022/07/30 00:25:48;;;;;;;6.10;3.22;;;;;;;22.25;73.99;100075.53;5590264;31;34136;-68
2022/07/30 00:28:51;;;;;;;5.70;3.12;;;;;;;22.22;74.96;100073.28;5590278;31;34844;-70
2022/07/30 00:31:53;;;;;;;5.97;3.47;;;;;;;22.18;75.71;100065.94;5590237;31;34369;-70
2022/07/30 00:34:57;;;;;;;4.70;3.33;;;;;;;22.22;75.32;100056.28;5590286;31;34181;-71
2022/07/30 00:38:00;;;;;;;4.82;3.28;;;;;;;22.13;75.75;100053.19;5589989;31;34523;-68
2022/07/30 00:41:03;;;;;;;5.30;3.25;;;;;;;22.06;76.17;100049.88;5590234;31;34220;-71
2022/07/30 00:44:05;;;;;;;4.82;3.37;;;;;;;22.08;76.10;100055.81;5589786;31;34231;-70
2022/07/30 00:47:08;;;;;;;4.97;3.35;;;;;;;22.07;76.11;100052.31;5589450;31;33637;-68
2022/07/30 00:50:12;;;;;;;4.62;3.80;;;;;;;22.09;76.19;100058.28;5589285;31;34179;-68
2022/07/30 00:53:15;;;;;;;3.58;3.20;;;;;;;22.10;76.13;100059.94;5590031;31;34752;-69
2022/07/30 00:56:18;;;;;;;6.05;3.58;;;;;;;22.12;76.34;100059.69;5590092;31;34846;-70
2022/07/30 00:59:20;;;;;;;6.70;3.87;;;;;;;22.18;76.43;100052.44;5589972;31;35558;-67
2022/07/30 01:02:23;;;;;;;6.15;3.50;;;;;;;22.17;76.82;100057.06;5589281;31;34467;-70
2022/07/30 01:05:26;;;;;;;6.07;3.55;;;;;;;22.32;76.11;100054.50;5589940;31;34259;-70
2022/07/30 01:08:29;;;;;;;4.00;3.25;;;;;;;22.28;76.18;100056.09;5589888;31;34969;-69
2022/07/30 01:11:36;;;;;;;5.57;3.35;;;;;;;22.26;76.29;100055.53;5589927;31;34184;-70
2022/07/30 01:14:39;;;;;;;5.30;3.30;;;;;;;22.24;76.33;100051.44;5589786;31;34668;-71
2022/07/30 01:17:42;;;;;;;3.97;3.28;;;;;;;22.25;76.24;100048.50;5589802;31;35681;-71
2022/07/30 01:20:59;;;;;;;5.60;3.35;;;;;;;22.16;76.28;100041.91;5589880;31;34868;-70
2022/07/30 01:24:37;;;;;;;4.20;3.53;;;;;;;22.14;76.22;100044.03;5589790;31;34323;-70
2022/07/30 01:27:47;;;;;;;6.43;3.65;;;;;;;22.18;76.14;100047.03;5589776;31;34990;-70
2022/07/30 01:30:52;;;;;;;5.37;3.28;;;;;;;22.17;75.74;100054.34;5590094;31;34147;-70
2022/07/30 01:33:57;;;;;;;4.03;3.40;;;;;;;22.10;76.32;100065.34;5589230;31;32719;-70
2022/07/30 01:37:04;;;;;;;5.15;3.28;;;;;;;22.05;76.49;100065.25;5589735;31;34293;-69
2022/07/30 01:40:08;;;;;;;4.47;3.50;;;;;;;21.98;76.83;100063.78;5588966;31;34615;-69
2022/07/30 01:43:11;;;;;;;5.00;3.65;;;;;;;21.94;77.23;100062.66;5589488;31;35013;-69
2022/07/30 01:46:16;;;;;;;5.22;3.75;;;;;;;21.89;77.61;100066.09;5589915;31;34890;-69
2022/07/30 01:49:21;;;;;;;4.85;3.72;;;;;;;21.84;77.73;100057.09;5589608;31;34955;-69
2022/07/30 01:52:29;;;;;;;4.65;3.97;;;;;;;21.83;78.09;100056.31;5588804;31;35399;-69
2022/07/30 01:55:38;;;;;;;4.07;3.67;;;;;;;21.79;78.38;100047.03;5589506;31;34529;-70
2022/07/30 01:58:42;;;;;;;5.07;3.63;;;;;;;21.74;78.69;100038.03;5589566;31;34275;-70
2022/07/30 02:01:47;;;;;;;3.85;3.28;;;;;;;21.71;79.12;100033.16;5589368;31;34559;-69
2022/07/30 02:04:50;;;;;;;4.40;3.53;;;;;;;21.65;79.40;100032.25;5589446;31;34299;-69
2022/07/30 02:08:05;;;;;;;3.33;3.00;;;;;;;21.63;79.10;100029.00;5589426;31;34344;-70
2022/07/30 02:11:14;;;;;;;4.50;3.17;;;;;;;21.65;78.34;100024.16;5589348;31;34271;-71
2022/07/30 02:14:22;;;;;;;4.35;3.37;;;;;;;21.60;78.55;100026.78;5587470;31;33816;-71
2022/07/30 02:17:31;;;;;;;3.92;3.30;;;;;;;21.53;78.95;100024.28;5589230;31;34928;-71
2022/07/30 02:20:50;;;;;;;6.80;3.78;;;;;;;21.53;78.64;100016.19;5589326;31;34217;-70
2022/07/30 02:23:55;;;;;;;4.37;3.60;;;;;;;21.59;78.44;100012.47;5576115;31;34231;-70
2022/07/30 02:27:07;;;;;;;6.43;3.80;;;;;;;21.53;78.65;100008.09;5589020;31;35063;-71
2022/07/30 02:30:11;;;;;;;5.25;3.47;;;;;;;21.52;78.93;100003.75;5589056;31;34227;-70
2022/07/30 02:33:16;;;;;;;4.05;3.60;;;;;;;21.51;78.88;99995.88;5588386;31;34284;-70
2022/07/30 02:36:19;;;;;;;4.10;3.53;;;;;;;21.53;78.94;100008.09;5588881;31;34253;-69
2022/07/30 02:39:22;;;;;;;3.85;3.37;;;;;;;21.44;79.64;100009.56;5588799;31;34848;-69
2022/07/30 02:42:26;;;;;;;4.78;3.78;;;;;;;21.39;80.02;99995.19;5588827;31;35476;-69
2022/07/30 02:45:29;;;;;;;4.68;3.65;;;;;;;21.35;80.19;99997.53;5589236;31;34766;-70
2022/07/30 02:48:37;;;;;;;4.53;3.60;;;;;;;21.33;80.44;99994.28;5588705;31;34343;-70
2022/07/30 02:51:41;;;;;;;6.32;4.18;;;;;;;21.35;80.31;99991.34;5588819;31;34558;-70
2022/07/30 02:54:46;;;;;;;7.40;3.90;;;;;;;21.30;80.67;99997.47;5589053;31;34235;-70
2022/07/30 02:57:52;;;;;;;7.72;3.47;;;;;;;21.32;80.68;99994.53;5588783;31;34225;-69
2022/07/30 03:00:56;;;;;;;4.87;4.00;;;;;;;21.36;80.49;100001.06;5588576;31;34919;-70
2022/07/30 03:04:00;;;;;;;6.43;3.97;;;;;;;21.34;80.46;99998.63;5587872;31;34160;-68
2022/07/30 03:07:05;;;;;;;8.68;3.70;;;;;;;21.38;80.12;100001.66;5588516;31;34569;-70
2022/07/30 03:10:11;;;;;;;5.37;3.42;;;;;;;21.34;80.25;100005.91;5588932;31;34835;-69
2022/07/30 03:13:16;;;;;;;6.03;3.78;;;;;;;21.28;80.51;100005.00;5562101;31;32847;-69
2022/07/30 03:16:22;;;;;;;5.00;3.67;;;;;;;21.28;80.78;100004.19;5588748;31;35503;-69
2022/07/30 03:19:29;;;;;;;4.40;3.62;;;;;;;21.26;80.71;100001.72;5587611;31;32940;-69
2022/07/30 03:22:38;;;;;;;;;;;;;;;21.25;80.81;100000.91;5588587;31;34200;-69
2022/07/30 03:25:44;;;;;;;5.65;3.62;;;;;;;21.27;80.78;100008.75;5589786;31;34434;-69
2022/07/30 03:28:48;;;;;;;7.55;3.58;;;;;;;21.27;80.77;100005.25;5590788;31;34406;-69
2022/07/30 03:31:52;;;;;;;5.22;3.42;;;;;;;21.21;80.97;100004.34;5590779;31;34886;-70
2022/07/30 03:34:56;;;;;;;5.75;3.05;;;;;;;21.15;81.31;100006.16;5590672;31;34933;-70
2022/07/30 03:38:11;;;;;;;7.30;3.37;;;;;;;21.09;81.84;100009.81;5590629;31;34876;-70
2022/07/30 03:41:17;;;;;;;5.72;3.70;;;;;;;21.07;82.13;100006.53;5590696;31;34812;-70
2022/07/30 03:44:21;;;;;;;6.70;3.35;;;;;;;21.00;83.18;100007.78;5591023;31;34626;-69
2022/07/30 03:47:24;;;;;;;4.47;3.17;;;;;;;20.95;83.91;99997.72;5590936;31;34153;-69
2022/07/30 03:50:28;;;;;;;5.05;3.70;;;;;;;20.87;84.39;100000.78;5591009;31;34766;-65
2022/07/30 03:53:31;;;;;;;5.78;3.47;;;;;;;20.89;84.69;99997.88;5590867;31;34235;-69
2022/07/30 03:56:37;;;;;;;5.75;3.65;;;;;;;20.90;84.67;99997.62;5589326;31;32822;-69
2022/07/30 03:59:40;;;;;;;4.93;3.70;;;;;;;20.95;84.47;100000.41;5590163;31;34164;-69
2022/07/30 04:02:44;;;;;;;5.75;3.47;;;;;;;20.97;84.47;100002.84;5590277;31;34136;-69
2022/07/30 04:05:48;;;;;;;5.20;3.45;;;;;;;20.97;84.63;100005.53;5590543;31;34374;-69
2022/07/30 04:08:51;;;;;;;7.05;3.80;;;;;;;20.91;85.18;100007.34;5590460;31;34788;-69
2022/07/30 04:11:54;;;;;;;5.37;3.47;;;;;;;20.95;85.01;100005.00;5590504;31;35461;-69
2022/07/30 04:14:57;;;;;;;5.03;3.45;;;;;;;21.01;84.88;100007.50;5590361;31;34366;-67
2022/07/30 04:18:04;;;;;;;6.22;3.53;;;;;;;20.98;85.17;100009.87;5590350;31;34195;-70
2022/07/30 04:21:09;;;;;;;5.37;3.37;;;;;;;21.00;85.16;100005.88;5590299;31;34422;-70
2022/07/30 04:24:19;;;;;;;3.50;2.87;;;;;;;21.10;84.65;100008.75;5590294;31;34979;-70
2022/07/30 04:27:24;;;;;;;7.82;3.75;;;;;;;21.02;85.20;100009.16;5590337;31;34303;-69
2022/07/30 04:30:27;;;;;;;7.18;3.70;;;;;;;21.03;85.34;100010.78;5589627;31;34486;-70
2022/07/30 04:33:30;;;;;;;4.50;3.42;;;;;;;21.04;85.45;100014.31;5590189;31;34210;-70
2022/07/30 04:36:35;;;;;;;4.95;3.47;;;;;;;21.19;84.73;100017.28;5589397;31;34734;-68
2022/07/30 04:39:38;;;;;;;5.80;3.12;;;;;;;21.08;84.98;100021.66;5590354;31;34160;-70
2022/07/30 04:42:41;;;;;;;6.32;3.37;;;;;;;21.10;85.12;100019.53;5590034;31;34897;-70
2022/07/30 04:45:44;;;;;;;4.82;3.60;;;;;;;21.09;85.59;100020.59;5590136;31;34992;-70
2022/07/30 04:48:46;;;;;;;7.22;3.55;;;;;;;21.19;85.07;100028.06;5589031;31;34720;-69
2022/07/30 04:51:50;;;;;;;3.85;3.28;;;;;;;21.32;84.44;100029.59;5589303;31;34292;-69
2022/07/30 04:54:58;;;;;;;4.43;3.37;;;;;;;21.41;84.06;100023.53;5589344;31;34943;-68
2022/07/30 04:58:02;;;;;;;4.90;3.70;;;;;;;21.31;84.71;100014.47;5590057;31;34266;-69
2022/07/30 05:01:05;;;;;;;5.37;3.28;;;;;;;21.45;84.29;100023.87;5590312;31;34289;-68
2022/07/30 05:04:10;;;;;;;4.57;3.30;;;;;;;21.43;84.53;100021.44;5589936;31;34847;-68
2022/07/30 05:07:13;;;;;;;5.18;3.40;;;;;;;21.46;84.55;100017.41;5590229;31;34403;-69
2022/07/30 05:10:17;;;;;;;8.43;3.33;;;;;;;21.49;84.41;100022.34;5590033;31;34556;-70
2022/07/30 05:13:20;;;;;;;4.07;3.33;;;;;;;21.65;83.86;100007.97;5588899;31;34683;-70
2022/07/30 05:16:29;;;;;;;11.82;3.53;;;;;;;21.74;83.38;100013.75;5588689;31;33722;-70
2022/07/30 05:19:32;;;;;;;5.80;3.65;;;;;;;21.99;81.94;100014.94;5589755;31;34379;-69
2022/07/30 05:22:35;;;;;;;5.85;3.60;;;;;;;21.75;82.83;100012.69;5590018;31;34215;-71
2022/07/30 05:25:44;;;;;;;6.07;3.40;;;;;;;21.91;82.09;100018.06;5588837;31;32964;-70
2022/07/30 05:28:48;;;;;;;6.15;3.00;;;;;;;21.68;83.77;100027.19;5589668;31;34200;-70
2022/07/30 05:31:57;;;;;;;5.12;3.10;;;;;;;21.90;83.02;100027.22;5590050;31;34193;-71
2022/07/30 05:35:05;;;;;;;4.97;3.28;;;;;;;22.04;82.35;100028.50;5588805;31;33803;-69
2022/07/30 05:38:08;;;;;;;6.65;3.37;;;;;;;22.00;81.86;100030.09;5588261;31;33472;-70
2022/07/30 05:41:13;;;;;;;4.53;3.15;;;;;;;22.21;81.12;100024.94;5589505;31;34668;-70
2022/07/30 05:44:34;;;;;;;5.70;3.30;;;;;;;22.38;80.25;100020.25;5589940;31;34240;-70
2022/07/30 05:47:37;;;;;;;5.07;2.90;;;;;;;22.73;78.71;100025.25;5588506;31;33345;-70
2022/07/30 05:50:40;;;;;;;8.65;4.75;;;;;;;23.14;76.90;100031.84;5589767;31;34112;-70
2022/07/30 05:53:43;;;;;;;4.40;3.17;;;;;;;23.19;75.73;100035.38;5589804;31;34939;-70
2022/07/30 05:56:48;;;;;;;5.65;2.87;;;;;;;23.32;75.02;100037.69;5589778;31;34859;-67
2022/07/30 05:59:52;;;;;;;5.18;3.20;;;;;;;23.24;75.25;100045.44;5589391;31;34623;-69
2022/07/30 06:02:54;;;;;;;4.68;3.08;;;;;;;23.20;75.68;100049.75;5589299;31;34259;-69
2022/07/30 06:06:04;;;;;;;3.55;3.03;;;;;;;23.28;76.61;100041.97;5588389;31;32824;-66
2022/07/30 06:09:07;;;;;;;4.40;3.55;;;;;;;23.07;77.62;100044.75;5589415;31;34637;-69
2022/07/30 06:12:09;;;;;;;4.25;3.00;;;;;;;22.85;77.42;100034.03;5589014;31;34281;-69
2022/07/30 06:15:13;;;;;;;3.72;2.95;;;;;;;22.91;77.44;100030.28;5589135;31;34122;-69
2022/07/30 06:18:16;;;;;;;5.30;3.20;;;;;;;22.84;76.77;100032.41;5589197;31;35046;-70
2022/07/30 06:21:20;;;;;;;5.75;3.60;;;;;;;23.03;76.38;100043.66;5589494;31;34845;-70
2022/07/30 06:24:25;;;;;;;6.25;3.33;;;;;;;23.08;76.38;100049.09;5589504;31;34293;-69
2022/07/30 06:27:32;;;;;;;6.57;3.33;;;;;;;23.08;76.81;100044.50;5589477;31;34331;-70
2022/07/30 06:30:44;;;;;;;4.18;3.05;;;;;;;23.12;77.06;100050.22;5589313;31;34101;-70
2022/07/30 06:33:47;;;;;;;4.95;2.97;;;;;;;23.12;77.65;100052.94;5589456;31;34228;-69
2022/07/30 06:36:50;;;;;;;3.90;3.15;;;;;;;23.00;78.28;100055.78;5588036;31;34169;-70
2022/07/30 06:39:53;;;;;;;4.37;2.97;;;;;;;23.02;78.24;100048.25;5588652;31;34833;-70
2022/07/30 06:43:02;;;;;;;5.62;2.67;;;;;;;22.93;78.69;100042.50;5589144;31;34555;-70
2022/07/30 06:46:08;;;;;;;4.40;3.00;;;;;;;22.95;79.01;100048.44;5589320;31;34380;-70
2022/07/30 06:49:12;;;;;;;4.03;2.75;;;;;;;23.13;78.10;100055.38;5588937;31;34272;-70
2022/07/30 06:52:15;;;;;;;6.00;2.70;;;;;;;23.46;76.09;100058.91;5589161;31;34181;-70
2022/07/30 06:55:21;;;;;;;5.03;2.87;;;;;;;23.54;75.53;100059.22;5589087;31;34918;-70
2022/07/30 06:58:24;;;;;;;3.60;2.90;;;;;;;23.61;75.51;100056.31;5588433;31;34207;-70
2022/07/30 07:01:28;;;;;;;4.85;2.65;;;;;;;24.22;73.57;100049.34;5594768;31;35428;-70
2022/07/30 07:04:32;;;;;;;3.92;2.65;;;;;;;24.72;70.03;100048.69;5595094;31;34868;-70
2022/07/30 07:07:35;;;;;;;6.50;2.37;;;;;;;25.02;68.71;100047.94;5595030;31;34220;-69
2022/07/30 07:10:48;;;;;;;3.33;2.40;;;;;;;24.44;70.23;100046.44;5594551;31;34679;-70
2022/07/30 07:13:53;;;;;;;4.32;2.45;;;;;;;24.46;69.63;100050.50;5594961;31;34081;-68
2022/07/30 07:16:56;;;;;;;3.37;2.40;;;;;;;24.51;68.60;100053.22;5581089;31;34125;-68
2022/07/30 07:20:01;;;;;;;3.65;2.30;;;;;;;24.37;70.13;100046.69;5594798;31;35800;-68
2022/07/30 07:23:05;;;;;;;2.97;2.55;;;;;;;23.88;70.60;100039.94;5594236;31;34251;-68
2022/07/30 07:26:15;;;;;;;3.45;2.42;;;;;;;23.49;72.56;100025.88;5594690;31;34251;-69
2022/07/30 07:29:17;;;;;;;3.45;2.62;;;;;;;23.73;71.71;100024.41;5594917;31;34811;-68
2022/07/30 07:32:21;;;;;;;2.72;2.45;;;;;;;23.82;71.40;100030.97;5594723;31;34189;-70
2022/07/30 07:35:24;;;;;;;3.60;2.50;;;;;;;24.30;69.83;100034.47;5594652;31;34281;-69
2022/07/30 07:38:27;;;;;;;3.92;2.60;;;;;;;24.36;68.78;100026.06;5594650;31;34416;-67
2022/07/30 07:41:30;;;;;;;5.72;2.50;;;;;;;24.33;69.66;100036.63;5594457;31;35433;-69
2022/07/30 07:44:51;;;;;;;4.43;2.50;;;;;;;24.16;71.06;100025.97;5594040;31;35399;-69
2022/07/30 07:47:54;;;;;;;4.53;2.50;;;;;;;24.20;69.21;100025.22;5594613;31;34845;-69
2022/07/30 07:50:58;;;;;;;6.03;2.80;;;;;;;24.31;68.26;100019.81;5594052;31;34189;-69
2022/07/30 07:54:02;;;;;;;2.62;2.33;;;;;;;24.40;67.41;100016.31;5593450;31;32851;-70
2022/07/30 07:57:23;;;;;;;3.72;1.95;;;;;;;24.94;64.58;100022.12;5594410;31;34568;-69
2022/07/30 08:00:28;;;;;;;6.25;2.70;;;;;;;25.30;62.89;100035.72;5593962;31;34380;-69
2022/07/30 08:03:31;;;;;;;6.12;2.10;;;;;;;25.66;61.03;100053.59;5593032;31;32695;-70
2022/07/30 08:06:40;;;;;;;2.80;1.90;;;;;;;25.65;59.36;100072.94;5593926;31;34321;-70
2022/07/30 08:09:48;;;;;;;4.40;2.25;;;;;;;25.76;59.69;100079.94;5592784;31;33441;-70
2022/07/30 08:12:52;;;;;;;5.15;2.45;;;;;;;25.15;61.36;100076.44;5589789;31;33880;-70
2022/07/30 08:15:58;;;;;;;4.93;2.28;;;;;;;24.89;62.03;100062.84;5590150;31;34853;-69
2022/07/30 08:19:03;;;;;;;2.75;2.15;;;;;;;24.82;62.25;100067.69;5589909;31;33985;-70
2022/07/30 08:22:06;;;;;;;4.97;2.30;;;;;;;24.66;63.37;100056.00;5589867;31;34898;-69
2022/07/30 08:25:09;;;;;;;3.95;2.58;;;;;;;24.63;64.11;100048.41;5589186;31;32839;-67
2022/07/30 08:28:13;;;;;;;3.35;2.62;;;;;;;24.27;67.39;100040.41;5589929;31;34355;-69
2022/07/30 08:31:35;;;;;;;4.95;2.80;;;;;;;24.25;67.25;100044.19;5588814;31;33504;-70
2022/07/30 08:34:38;;;;;;;3.40;2.70;;;;;;;24.50;70.59;100058.91;5590308;31;34810;-71
2022/07/30 08:37:41;;;;;;;4.12;3.00;;;;;;;23.75;74.77;100071.03;5589913;31;34843;-71
2022/07/30 08:40:45;;;;;;;6.00;3.20;;;;;;;23.54;77.17;100072.78;5589187;31;34435;-69
2022/07/30 08:43:50;;;;;;;6.18;3.65;;;;;;;23.48;78.22;100075.72;5590324;31;34973;-71
2022/07/30 08:46:56;;;;;;;3.75;3.17;;;;;;;24.12;76.16;100090.75;5590187;31;34321;-71
2022/07/30 08:50:03;;;;;;;3.47;2.90;;;;;;;24.48;73.26;100096.34;5590356;31;34287;-70
2022/07/30 08:53:07;;;;;;;4.87;2.92;;;;;;;24.64;69.00;100090.69;5590037;31;34126;-71
2022/07/30 08:56:11;;;;;;;3.60;3.00;;;;;;;24.79;67.29;100083.69;5589278;31;32819;-69
2022/07/30 08:59:15;;;;;;;4.82;2.90;;;;;;;24.87;66.13;100085.91;5589861;31;35464;-69
2022/07/30 09:02:18;;;;;;;5.40;2.92;;;;;;;25.06;67.20;100085.13;5589966;31;34121;-69
2022/07/30 09:05:32;;;;;;;4.95;3.30;;;;;;;24.89;67.91;100076.41;5589972;31;34164;-70
2022/07/30 09:08:35;;;;;;;4.87;3.20;;;;;;;25.42;65.72;100083.22;5588713;31;32839;-70
2022/07/30 09:11:38;;;;;;;5.65;3.03;;;;;;;25.33;65.80;100074.00;5588988;31;32578;-70
2022/07/30 09:15:10;;;;;;;4.03;3.20;;;;;;;25.43;66.23;100078.59;5588896;31;33066;-70
2022/07/30 09:18:13;;;;;;;3.97;2.70;;;;;;;24.99;66.72;100078.31;5588902;31;33088;-71
2022/07/30 09:21:25;;;;;;;6.03;3.00;;;;;;;24.75;68.72;100085.28;5590101;31;34576;-70
2022/07/30 09:24:40;;;;;;;4.05;3.10;;;;;;;24.35;69.88;100075.16;5589329;31;34109;-70
2022/07/30 09:27:51;;;;;;;5.90;2.90;;;;;;;24.43;71.08;100074.63;5589887;31;34414;-69
2022/07/30 09:31:04;;;;;;;5.37;3.08;;;;;;;24.31;71.24;100068.63;5588720;31;32787;-69
2022/07/30 09:34:46;;;;;;;5.12;3.28;;;;;;;23.81;73.12;100073.50;5589608;31;34220;-70
2022/07/30 09:37:59;;;;;;;3.83;3.00;;;;;;;23.81;73.24;100073.50;5555738;31;34176;-69
2022/07/30 09:41:38;;;;;;;5.05;2.72;;;;;;;23.38;74.84;100077.22;5589225;31;34225;-69
2022/07/30 09:44:42;;;;;;;4.30;2.97;;;;;;;23.53;74.18;100070.34;5577680;31;33090;-69
2022/07/30 09:47:49;;;;;;;4.95;2.80;;;;;;;23.21;74.50;100079.25;5589856;31;35423;-69
2022/07/30 09:50:54;;;;;;;4.15;3.05;;;;;;;23.12;75.53;100075.41;5576164;31;32689;-69
2022/07/30 09:53:59;;;;;;;5.50;3.25;;;;;;;23.07;76.57;100074.53;5575850;31;32997;-70
2022/07/30 09:57:06;;;;;;;5.53;4.10;;;;;;;23.24;76.59;100073.31;5589304;31;34788;-69
2022/07/30 10:00:31;;;;;;;6.20;4.85;;;;;;;22.96;79.66;100087.13;5588610;31;34124;-69
2022/07/30 10:03:40;;;;;;;7.87;6.00;;;;;;;22.72;82.83;100110.16;5588668;31;34810;-70
2022/07/30 10:06:59;;;;;;;12.60;6.50;;;;;;;22.43;85.67;100141.94;5589422;31;33268;-75
2022/07/30 10:10:06;;;;;;;16.15;7.82;;;;;;;20.83;100.00;100153.34;5589356;31;34934;-75
2022/07/30 10:13:18;;;;;;;18.77;10.00;;;;;;;19.80;100.00;100140.59;5589150;31;34692;-73
2022/07/30 10:16:27;;;;;;;13.80;9.55;;;;;;;19.30;100.00;100104.38;5589568;31;34820;-74
2022/07/30 10:19:32;;;;;;;13.73;10.23;;;;;;;19.47;100.00;100084.63;5588345;31;34303;-73
2022/07/30 10:22:48;;;;;;;13.60;9.98;;;;;;;19.49;100.00;100087.09;5589382;31;34979;-71
2022/07/30 10:25:57;;;;;;;14.63;11.12;;;;;;;19.41;100.00;100079.34;5589023;31;34835;-72
2022/07/30 10:29:05;;;;;;;17.00;12.00;;;;;;;19.41;100.00;100092.81;5588767;31;34931;-70
2022/07/30 10:32:08;;;;;;;16.65;11.88;;;;;;;19.31;100.00;100098.75;5589543;31;34160;-71
2022/07/30 10:35:12;;;;;;;17.12;12.00;;;;;;;19.33;100.00;100093.94;5587446;31;34554;-69
2022/07/30 10:38:38;;;;;;;15.75;11.93;;;;;;;19.31;100.00;100108.69;5588984;31;34302;-68
2022/07/30 10:42:05;;;;;;;20.58;12.25;;;;;;;19.33;100.00;100111.97;5588073;31;33023;-69
2022/07/30 10:45:11;;;;;;;13.85;11.50;;;;;;;19.34;100.00;100119.00;5588394;31;34221;-68
2022/07/30 10:48:20;;;;;;;15.90;12.77;;;;;;;19.20;100.00;100115.69;5587839;31;34194;-69
2022/07/30 10:51:42;;;;;;;14.45;12.27;;;;;;;19.41;100.00;100123.19;5589064;31;34194;-68
2022/07/30 10:54:52;;;;;;;15.18;12.27;;;;;;;19.36;100.00;100122.28;5587853;31;34692;-69
2022/07/30 10:58:09;;;;;;;17.23;12.93;;;;;;;19.48;100.00;100115.06;5588829;31;34953;-68
2022/07/30 11:01:12;;;;;;;13.30;11.23;;;;;;;19.61;100.00;100112.13;5588601;31;34275;-68
2022/07/30 11:04:28;;;;;;;16.05;11.70;;;;;;;19.62;100.00;100092.25;5587752;31;34999;-68
2022/07/30 11:07:34;;;;;;;13.25;10.55;;;;;;;19.62;100.00;100086.06;5588603;31;34190;-68
2022/07/30 11:10:40;;;;;;;14.55;11.12;;;;;;;19.62;100.00;100073.41;5588335;31;34297;-68
2022/07/30 11:13:55;;;;;;;14.60;10.07;;;;;;;19.72;100.00;100072.84;5587748;31;33536;-68
2022/07/30 11:16:58;;;;;;;13.00;9.52;;;;;;;19.81;100.00;100061.47;5574672;31;33838;-68
2022/07/30 11:20:02;;;;;;;12.73;9.05;;;;;;;20.19;100.00;100062.81;5587743;31;32951;-70
2022/07/30 11:23:27;;;;;;;11.52;9.02;;;;;;;20.37;100.00;100055.44;5587625;31;34503;-70
2022/07/30 11:26:45;;;;;;;8.82;7.72;;;;;;;21.01;100.00;100044.47;5587321;31;32797;-71
2022/07/30 11:29:49;;;;;;;12.57;7.70;;;;;;;22.08;100.00;100037.75;5588256;31;34621;-76
2022/07/30 11:33:13;;;;;;;9.90;7.28;;;;;;;22.11;100.00;100031.03;5588200;31;34855;-73
2022/07/30 11:36:15;;;;;;;10.07;7.47;;;;;;;21.63;100.00;100020.91;5587987;31;34726;-74
2022/07/30 11:39:19;;;;;;;7.90;7.10;;;;;;;21.92;100.00;100021.56;5586869;31;34459;-71
2022/07/30 11:42:33;;;;;;;8.25;7.10;;;;;;;22.46;100.00;100028.72;5588030;31;34906;-71
2022/07/30 11:45:36;;;;;;;8.93;6.37;;;;;;;22.99;100.00;100042.53;5588401;31;34299;-68
2022/07/30 11:48:41;;;;;;;9.23;7.60;;;;;;;22.84;100.00;100035.09;5590735;31;33861;-71
2022/07/30 11:51:46;;;;;;;6.70;5.93;;;;;;;22.84;100.00;100038.62;5590644;31;34975;-71
2022/07/30 11:54:51;;;;;;;10.73;4.97;;;;;;;23.84;100.00;100039.66;5589898;31;33582;-73
2022/07/30 11:57:54;;;;;;;5.85;4.53;;;;;;;25.46;90.85;100034.63;5590624;31;34916;-70
2022/07/30 12:01:21;;;;;;;4.82;4.00;;;;;;;25.20;91.80;100027.56;5590514;31;34344;-70
2022/07/30 12:04:24;;;;;;;3.72;3.35;;;;;;;26.12;83.71;100023.59;5589852;31;32803;-70
2022/07/30 12:07:26;;;;;;;4.78;3.50;;;;;;;27.37;80.53;100017.59;5589673;31;32840;-70
2022/07/30 12:10:30;;;;;;;3.90;3.15;;;;;;;28.34;70.90;100002.63;5590137;31;35389;-71
2022/07/30 12:13:33;;;;;;;4.40;3.15;;;;;;;26.98;77.48;100001.34;5589699;31;32915;-71
2022/07/30 12:16:50;;;;;;;3.62;3.10;;;;;;;25.50;83.52;99989.53;5589667;31;33459;-70
2022/07/30 12:19:52;;;;;;;5.55;3.10;;;;;;;26.36;81.74;99986.50;5590680;31;34643;-71
2022/07/30 12:22:56;;;;;;;4.72;3.00;;;;;;;29.36;65.82;99980.81;5589737;31;32693;-70
2022/07/30 12:25:59;;;;;;;4.10;2.95;;;;;;;28.11;69.35;99970.75;5590229;31;34206;-70
2022/07/30 12:29:05;;;;;;;3.33;2.97;;;;;;;27.89;67.31;99965.81;5590340;31;34387;-71
2022/07/30 12:32:08;;;;;;;5.65;2.92;;;;;;;29.65;61.97;99977.81;5589168;31;34331;-68
2022/07/30 12:35:11;;;;;;;3.40;3.10;;;;;;;27.63;69.97;99984.41;5590084;31;34290;-70
2022/07/30 12:38:15;;;;;;;5.65;3.22;;;;;;;25.55;77.05;99983.28;5589281;31;32790;-71
2022/07/30 12:41:19;;;;;;;5.12;3.10;;;;;;;26.15;73.81;99974.06;5589778;31;34853;-71
2022/07/30 12:44:45;;;;;;;5.30;2.00;;;;;;;27.32;68.53;99976.78;5589769;31;34599;-72
2022/07/30 12:47:48;;;;;;;2.45;1.90;;;;;;;28.17;61.69;99966.03;5589052;31;33333;-71
2022/07/30 12:51:06;;;;;;;3.53;2.05;;;;;;;30.89;53.65;99970.97;5590065;31;34906;-71
2022/07/30 12:54:16;;;;;;;1.80;1.65;;;;;;;34.03;47.27;99974.97;5589290;31;33245;-70
2022/07/30 12:57:21;;;;;;;1.50;1.35;;;;;;;33.66;44.35;99971.06;5562602;31;33537;-72
2022/07/30 13:00:27;;;;;;;3.12;1.40;;;;;;;33.55;44.16;99969.84;5589804;31;34318;-71
2022/07/30 13:03:38;;;;;;;2.60;1.30;;;;;;;31.96;47.90;99960.69;5589298;31;33099;-71
2022/07/30 13:06:42;;;;;;;1.65;1.20;;;;;;;33.58;44.79;99967.22;5588733;31;32933;-70
2022/07/30 13:10:05;;;;;;;1.55;0.93;;;;;;;31.90;47.88;99973.75;5588944;31;35578;-71
2022/07/30 13:13:09;;;;;;;1.25;0.90;;;;;;;30.71;52.59;99965.69;5589754;31;35481;-71
2022/07/30 13:16:12;;;;;;;1.33;0.70;;;;;;;32.05;48.85;99974.47;5588686;31;32664;-72
2022/07/30 13:19:15;;;;;;;1.00;0.60;;;;;;;33.28;42.91;99979.31;5589494;31;34168;-69
2022/07/30 13:22:18;;;;;;;0.70;0.60;;;;;;;32.40;44.27;99981.62;5589573;31;34289;-69
2022/07/30 13:25:23;;;;;;;0.70;0.70;;;;;;;28.89;53.23;99986.53;5588922;31;33549;-70
2022/07/30 13:28:40;;;;;;;1.37;0.70;;;;;;;26.95;59.01;99972.78;5589342;31;34315;-69
2022/07/30 13:31:42;;;;;;;0.90;0.70;;;;;;;26.44;63.48;99958.69;5588171;31;33346;-69
2022/07/30 13:34:45;;;;;;;1.37;1.00;;;;;;;25.30;69.46;99943.41;5589912;31;34302;-70
2022/07/30 13:37:48;;;;;;;3.28;0.90;;;;;;;25.64;68.67;99933.56;5589264;31;34173;-67
2022/07/30 13:40:51;;;;;;;0.98;0.80;;;;;;;26.81;62.75;99931.78;5589032;31;34355;-70
2022/07/30 13:43:54;;;;;;;0.98;0.88;;;;;;;27.41;60.72;99935.00;5588698;31;33008;-71
2022/07/30 13:46:57;;;;;;;1.27;0.73;;;;;;;26.95;63.46;99934.66;5588328;31;32808;-69
2022/07/30 13:50:04;;;;;;;1.52;0.70;;;;;;;27.04;61.84;99932.94;5589269;31;34655;-69
2022/07/30 13:53:07;;;;;;;1.42;0.70;;;;;;;25.31;66.89;99932.28;5588614;31;33398;-70
2022/07/30 13:56:10;;;;;;;0.80;0.70;;;;;;;25.07;67.31;99937.47;5588481;31;33873;-67
2022/07/30 13:59:20;;;;;;;0.80;0.73;;;;;;;24.49;71.44;99952.38;5589590;31;35433;-68
2022/07/30 14:02:23;;;;;;;4.32;1.00;;;;;;;23.56;75.99;99946.06;5589363;31;34727;-71
2022/07/30 14:05:27;;;;;;;1.48;1.12;;;;;;;23.59;79.04;99966.38;5589399;31;34233;-70
2022/07/30 14:08:30;;;;;;;1.65;0.90;;;;;;;23.16;81.38;99975.56;5588548;31;34055;-70
2022/07/30 14:11:33;;;;;;;3.55;0.85;;;;;;;23.48;80.10;99970.91;5589220;31;34167;-70
2022/07/30 14:14:36;;;;;;;2.03;0.90;;;;;;;22.91;80.96;99976.19;5588757;31;32716;-70
2022/07/30 14:17:38;;;;;;;1.17;0.70;;;;;;;23.02;81.77;99986.00;5588217;31;33628;-69
2022/07/30 14:20:41;;;;;;;3.47;0.60;;;;;;;22.93;83.60;99988.38;5588965;31;34236;-69
2022/07/30 14:23:50;;;;;;;0.70;0.60;;;;;;;23.11;79.21;99989.88;5588939;31;34276;-69
2022/07/30 14:26:52;;;;;;;0.90;0.70;;;;;;;22.60;80.73;99999.41;5562266;31;33491;-68